sensor_id;sensor_type;location;lat;lon;timestamp;temperature;humidity
20744;DHT22;56303;52.160;-0.428;2023-04-15T00:00:57;8.20;99.90
20744;DHT22;56303;52.160;-0.428;2023-04-15T00:03:24;8.30;99.90
20744;DHT22;56303;52.160;-0.428;2023-04-15T00:05:52;8.00;99.90
20744;DHT22;56303;52.160;-0.428;2023-04-15T00:08:18;7.90;99.90
20744;DHT22;56303;52.160;-0.428;2023-04-15T00:10:47;8.00;99.90
20744;DHT22;56303;52.160;-0.428;2023-04-15T00:13:13;8.10;99.90
20744;DHT22;56303;52.160;-0.428;2023-04-15T00:15:41;8.10;99.90
20744;DHT22;56303;52.160;-0.428;2023-04-15T00:18:08;8.20;99.90
20744;DHT22;56303;52.160;-0.428;2023-04-15T00:20:35;8.50;99.90
20744;DHT22;56303;52.160;-0.428;2023-04-15T00:23:02;8.70;99.90
20744;DHT22;56303;52.160;-0.428;2023-04-15T00:25:30;8.90;99.90
20744;DHT22;56303;52.160;-0.428;2023-04-15T00:27:57;9.00;99.90
20744;DHT22;56303;52.160;-0.428;2023-04-15T00:30:24;7.60;99.90
20744;DHT22;56303;52.160;-0.428;2023-04-15T00:32:52;8.80;99.90
20744;DHT22;56303;52.160;-0.428;2023-04-15T00:35:19;8.70;99.90
20744;DHT22;56303;52.160;-0.428;2023-04-15T00:37:46;8.60;99.90
20744;DHT22;56303;52.160;-0.428;2023-04-15T00:40:13;8.80;99.90
20744;DHT22;56303;52.160;-0.428;2023-04-15T00:42:43;8.80;99.90
20744;DHT22;56303;52.160;-0.428;2023-04-15T00:45:11;8.90;99.90
20744;DHT22;56303;52.160;-0.428;2023-04-15T00:47:40;8.90;99.90
20744;DHT22;56303;52.160;-0.428;2023-04-15T00:50:09;8.80;99.90
20744;DHT22;56303;52.160;-0.428;2023-04-15T00:52:36;8.90;99.90
20744;DHT22;56303;52.160;-0.428;2023-04-15T00:55:04;8.80;99.90
20744;DHT22;56303;52.160;-0.428;2023-04-15T00:57:31;8.90;99.90
20744;DHT22;56303;52.160;-0.428;2023-04-15T00:59:59;8.80;99.90
20744;DHT22;56303;52.160;-0.428;2023-04-15T01:02:26;8.90;99.90
20744;DHT22;56303;52.160;-0.428;2023-04-15T01:04:53;8.70;99.90
20744;DHT22;56303;52.160;-0.428;2023-04-15T01:07:24;8.80;99.90
20744;DHT22;56303;52.160;-0.428;2023-04-15T01:09:51;9.20;99.90
20744;DHT22;56303;52.160;-0.428;2023-04-15T01:12:19;9.20;99.90
20744;DHT22;56303;52.160;-0.428;2023-04-15T01:14:46;9.10;99.90
20744;DHT22;56303;52.160;-0.428;2023-04-15T01:17:13;9.20;99.90
20744;DHT22;56303;52.160;-0.428;2023-04-15T01:19:40;9.20;99.90
20744;DHT22;56303;52.160;-0.428;2023-04-15T01:22:07;9.20;99.90
20744;DHT22;56303;52.160;-0.428;2023-04-15T01:24:34;9.10;99.90
20744;DHT22;56303;52.160;-0.428;2023-04-15T01:27:06;9.20;99.90
20744;DHT22;56303;52.160;-0.428;2023-04-15T01:29:36;9.30;99.90
20744;DHT22;56303;52.160;-0.428;2023-04-15T01:32:04;9.30;99.90
20744;DHT22;56303;52.160;-0.428;2023-04-15T01:34:31;9.20;99.90
20744;DHT22;56303;52.160;-0.428;2023-04-15T01:37:01;9.30;99.90
20744;DHT22;56303;52.160;-0.428;2023-04-15T01:39:27;8.10;99.90
20744;DHT22;56303;52.160;-0.428;2023-04-15T01:41:54;9.30;99.90
20744;DHT22;56303;52.160;-0.428;2023-04-15T01:44:21;9.00;99.90
20744;DHT22;56303;52.160;-0.428;2023-04-15T01:46:48;9.10;99.90
20744;DHT22;56303;52.160;-0.428;2023-04-15T01:49:15;8.90;99.90
20744;DHT22;56303;52.160;-0.428;2023-04-15T01:51:42;8.90;99.90
20744;DHT22;56303;52.160;-0.428;2023-04-15T01:54:09;9.00;99.90
20744;DHT22;56303;52.160;-0.428;2023-04-15T01:56:36;9.00;99.90
20744;DHT22;56303;52.160;-0.428;2023-04-15T01:59:02;9.10;99.90
20744;DHT22;56303;52.160;-0.428;2023-04-15T02:01:29;8.80;99.90
20744;DHT22;56303;52.160;-0.428;2023-04-15T02:03:56;8.90;99.90
20744;DHT22;56303;52.160;-0.428;2023-04-15T02:06:23;9.20;99.90
20744;DHT22;56303;52.160;-0.428;2023-04-15T02:08:51;9.30;99.90
20744;DHT22;56303;52.160;-0.428;2023-04-15T02:11:17;9.10;99.90
20744;DHT22;56303;52.160;-0.428;2023-04-15T02:13:45;9.00;99.90
20744;DHT22;56303;52.160;-0.428;2023-04-15T02:16:16;9.00;99.90
20744;DHT22;56303;52.160;-0.428;2023-04-15T02:18:46;9.00;99.90
20744;DHT22;56303;52.160;-0.428;2023-04-15T02:21:13;8.70;99.90
20744;DHT22;56303;52.160;-0.428;2023-04-15T02:23:40;8.80;99.90
20744;DHT22;56303;52.160;-0.428;2023-04-15T02:26:07;8.60;99.90
20744;DHT22;56303;52.160;-0.428;2023-04-15T02:28:34;8.50;99.90
20744;DHT22;56303;52.160;-0.428;2023-04-15T02:31:07;8.70;99.90
20744;DHT22;56303;52.160;-0.428;2023-04-15T02:33:35;8.80;99.90
20744;DHT22;56303;52.160;-0.428;2023-04-15T02:36:03;8.70;99.90
20744;DHT22;56303;52.160;-0.428;2023-04-15T02:38:30;8.50;99.90
20744;DHT22;56303;52.160;-0.428;2023-04-15T02:40:57;8.60;99.90
20744;DHT22;56303;52.160;-0.428;2023-04-15T02:43:24;8.60;99.90
20744;DHT22;56303;52.160;-0.428;2023-04-15T02:45:51;8.60;99.90
20744;DHT22;56303;52.160;-0.428;2023-04-15T02:48:17;8.50;99.90
20744;DHT22;56303;52.160;-0.428;2023-04-15T02:50:46;8.60;99.90
20744;DHT22;56303;52.160;-0.428;2023-04-15T02:53:13;8.70;99.90
20744;DHT22;56303;52.160;-0.428;2023-04-15T02:55:40;8.60;99.90
20744;DHT22;56303;52.160;-0.428;2023-04-15T02:58:08;8.70;99.90
20744;DHT22;56303;52.160;-0.428;2023-04-15T03:00:35;8.70;99.90
20744;DHT22;56303;52.160;-0.428;2023-04-15T03:03:03;8.70;99.90
20744;DHT22;56303;52.160;-0.428;2023-04-15T03:05:30;9.00;99.90
20744;DHT22;56303;52.160;-0.428;2023-04-15T03:07:57;8.70;99.90
20744;DHT22;56303;52.160;-0.428;2023-04-15T03:10:24;8.60;99.90
20744;DHT22;56303;52.160;-0.428;2023-04-15T03:12:51;8.80;99.90
20744;DHT22;56303;52.160;-0.428;2023-04-15T03:15:18;8.60;99.90
20744;DHT22;56303;52.160;-0.428;2023-04-15T03:17:45;8.50;99.90
20744;DHT22;56303;52.160;-0.428;2023-04-15T03:20:12;8.60;99.90
20744;DHT22;56303;52.160;-0.428;2023-04-15T03:22:38;8.50;99.90
20744;DHT22;56303;52.160;-0.428;2023-04-15T03:25:05;8.40;99.90
20744;DHT22;56303;52.160;-0.428;2023-04-15T03:27:33;8.30;99.90
20744;DHT22;56303;52.160;-0.428;2023-04-15T03:29:59;8.20;99.90
20744;DHT22;56303;52.160;-0.428;2023-04-15T03:32:26;8.20;99.90
20744;DHT22;56303;52.160;-0.428;2023-04-15T03:34:53;8.30;99.90
20744;DHT22;56303;52.160;-0.428;2023-04-15T03:37:20;8.50;99.90
20744;DHT22;56303;52.160;-0.428;2023-04-15T03:39:47;8.60;99.90
20744;DHT22;56303;52.160;-0.428;2023-04-15T03:42:13;8.50;99.90
20744;DHT22;56303;52.160;-0.428;2023-04-15T03:44:40;8.30;99.90
20744;DHT22;56303;52.160;-0.428;2023-04-15T03:47:07;8.40;99.90
20744;DHT22;56303;52.160;-0.428;2023-04-15T03:49:35;8.40;99.90
20744;DHT22;56303;52.160;-0.428;2023-04-15T03:52:02;7.90;99.90
20744;DHT22;56303;52.160;-0.428;2023-04-15T03:54:29;8.10;99.90
20744;DHT22;56303;52.160;-0.428;2023-04-15T03:56:56;8.30;99.90
20744;DHT22;56303;52.160;-0.428;2023-04-15T03:59:23;8.40;99.90
20744;DHT22;56303;52.160;-0.428;2023-04-15T04:01:49;8.50;99.90
20744;DHT22;56303;52.160;-0.428;2023-04-15T04:04:17;8.90;99.90
20744;DHT22;56303;52.160;-0.428;2023-04-15T04:06:44;8.40;99.90
20744;DHT22;56303;52.160;-0.428;2023-04-15T04:09:10;8.60;99.90
20744;DHT22;56303;52.160;-0.428;2023-04-15T04:11:37;8.40;99.90
20744;DHT22;56303;52.160;-0.428;2023-04-15T04:14:04;8.50;99.90
20744;DHT22;56303;52.160;-0.428;2023-04-15T04:16:31;8.50;99.90
20744;DHT22;56303;52.160;-0.428;2023-04-15T04:18:57;8.40;99.90
20744;DHT22;56303;52.160;-0.428;2023-04-15T04:21:25;8.20;99.90
20744;DHT22;56303;52.160;-0.428;2023-04-15T04:23:52;8.40;99.90
20744;DHT22;56303;52.160;-0.428;2023-04-15T04:26:19;8.40;99.90
20744;DHT22;56303;52.160;-0.428;2023-04-15T04:28:46;8.20;99.90
20744;DHT22;56303;52.160;-0.428;2023-04-15T04:31:12;8.40;99.90
20744;DHT22;56303;52.160;-0.428;2023-04-15T04:33:39;8.60;99.90
20744;DHT22;56303;52.160;-0.428;2023-04-15T04:36:06;8.80;99.90
20744;DHT22;56303;52.160;-0.428;2023-04-15T04:38:33;8.50;99.90
20744;DHT22;56303;52.160;-0.428;2023-04-15T04:41:00;8.70;99.90
20744;DHT22;56303;52.160;-0.428;2023-04-15T04:43:27;8.70;99.90
20744;DHT22;56303;52.160;-0.428;2023-04-15T04:45:53;8.60;99.90
20744;DHT22;56303;52.160;-0.428;2023-04-15T04:48:20;8.70;99.90
20744;DHT22;56303;52.160;-0.428;2023-04-15T04:50:47;8.70;99.90
20744;DHT22;56303;52.160;-0.428;2023-04-15T04:53:14;8.60;99.90
20744;DHT22;56303;52.160;-0.428;2023-04-15T04:55:41;8.70;99.90
20744;DHT22;56303;52.160;-0.428;2023-04-15T04:58:08;8.60;99.90
20744;DHT22;56303;52.160;-0.428;2023-04-15T05:00:35;8.60;99.90
20744;DHT22;56303;52.160;-0.428;2023-04-15T05:03:03;8.70;99.90
20744;DHT22;56303;52.160;-0.428;2023-04-15T05:05:31;9.00;99.90
20744;DHT22;56303;52.160;-0.428;2023-04-15T05:07:58;8.80;99.90
20744;DHT22;56303;52.160;-0.428;2023-04-15T05:10:25;8.90;99.90
20744;DHT22;56303;52.160;-0.428;2023-04-15T05:12:51;9.00;99.90
20744;DHT22;56303;52.160;-0.428;2023-04-15T05:15:18;8.80;99.90
20744;DHT22;56303;52.160;-0.428;2023-04-15T05:17:45;8.70;99.90
20744;DHT22;56303;52.160;-0.428;2023-04-15T05:20:12;8.70;99.90
20744;DHT22;56303;52.160;-0.428;2023-04-15T05:22:40;8.90;99.90
20744;DHT22;56303;52.160;-0.428;2023-04-15T05:25:06;8.80;99.90
20744;DHT22;56303;52.160;-0.428;2023-04-15T05:27:34;8.90;99.90
20744;DHT22;56303;52.160;-0.428;2023-04-15T05:30:01;8.90;99.90
20744;DHT22;56303;52.160;-0.428;2023-04-15T05:32:28;8.70;99.90
20744;DHT22;56303;52.160;-0.428;2023-04-15T05:34:55;8.50;99.90
20744;DHT22;56303;52.160;-0.428;2023-04-15T05:37:22;8.30;99.90
20744;DHT22;56303;52.160;-0.428;2023-04-15T05:39:49;8.60;99.90
20744;DHT22;56303;52.160;-0.428;2023-04-15T05:42:15;8.60;99.90
20744;DHT22;56303;52.160;-0.428;2023-04-15T05:44:42;8.70;99.90
20744;DHT22;56303;52.160;-0.428;2023-04-15T05:47:09;8.60;99.90
20744;DHT22;56303;52.160;-0.428;2023-04-15T05:49:36;8.40;99.90
20744;DHT22;56303;52.160;-0.428;2023-04-15T05:52:03;8.50;99.90
20744;DHT22;56303;52.160;-0.428;2023-04-15T05:54:30;8.60;99.90
20744;DHT22;56303;52.160;-0.428;2023-04-15T05:56:57;7.80;99.90
20744;DHT22;56303;52.160;-0.428;2023-04-15T05:59:24;8.40;99.90
20744;DHT22;56303;52.160;-0.428;2023-04-15T06:01:51;8.70;99.90
20744;DHT22;56303;52.160;-0.428;2023-04-15T06:04:18;8.80;99.90
20744;DHT22;56303;52.160;-0.428;2023-04-15T06:06:45;9.00;99.90
20744;DHT22;56303;52.160;-0.428;2023-04-15T06:09:12;9.10;99.90
20744;DHT22;56303;52.160;-0.428;2023-04-15T06:11:39;9.10;99.90
20744;DHT22;56303;52.160;-0.428;2023-04-15T06:14:07;9.00;99.90
20744;DHT22;56303;52.160;-0.428;2023-04-15T06:16:34;9.30;99.90
20744;DHT22;56303;52.160;-0.428;2023-04-15T06:19:02;9.20;99.90
20744;DHT22;56303;52.160;-0.428;2023-04-15T06:21:29;9.30;99.90
20744;DHT22;56303;52.160;-0.428;2023-04-15T06:23:58;9.00;99.90
20744;DHT22;56303;52.160;-0.428;2023-04-15T06:26:29;9.30;99.90
20744;DHT22;56303;52.160;-0.428;2023-04-15T06:28:56;9.30;99.90
20744;DHT22;56303;52.160;-0.428;2023-04-15T06:31:23;9.50;99.90
20744;DHT22;56303;52.160;-0.428;2023-04-15T06:33:50;9.60;99.90
20744;DHT22;56303;52.160;-0.428;2023-04-15T06:36:17;9.30;99.90
20744;DHT22;56303;52.160;-0.428;2023-04-15T06:38:44;9.30;99.90
20744;DHT22;56303;52.160;-0.428;2023-04-15T06:41:11;9.40;99.90
20744;DHT22;56303;52.160;-0.428;2023-04-15T06:43:38;9.30;99.90
20744;DHT22;56303;52.160;-0.428;2023-04-15T06:46:05;9.40;99.90
20744;DHT22;56303;52.160;-0.428;2023-04-15T06:48:32;9.30;99.90
20744;DHT22;56303;52.160;-0.428;2023-04-15T06:50:59;9.30;99.90
20744;DHT22;56303;52.160;-0.428;2023-04-15T06:53:26;9.10;99.90
20744;DHT22;56303;52.160;-0.428;2023-04-15T06:55:53;9.30;99.90
20744;DHT22;56303;52.160;-0.428;2023-04-15T06:58:20;9.40;99.90
20744;DHT22;56303;52.160;-0.428;2023-04-15T07:00:47;9.20;99.90
20744;DHT22;56303;52.160;-0.428;2023-04-15T07:03:14;9.30;99.90
20744;DHT22;56303;52.160;-0.428;2023-04-15T07:05:41;9.30;99.90
20744;DHT22;56303;52.160;-0.428;2023-04-15T07:08:09;9.60;99.90
20744;DHT22;56303;52.160;-0.428;2023-04-15T07:10:35;9.80;99.90
20744;DHT22;56303;52.160;-0.428;2023-04-15T07:13:03;9.80;99.90
20744;DHT22;56303;52.160;-0.428;2023-04-15T07:15:30;9.60;99.90
20744;DHT22;56303;52.160;-0.428;2023-04-15T07:17:56;9.60;99.90
20744;DHT22;56303;52.160;-0.428;2023-04-15T07:20:23;9.30;99.90
20744;DHT22;56303;52.160;-0.428;2023-04-15T07:22:50;9.30;99.90
20744;DHT22;56303;52.160;-0.428;2023-04-15T07:25:17;9.20;99.90
20744;DHT22;56303;52.160;-0.428;2023-04-15T07:27:44;8.90;99.90
20744;DHT22;56303;52.160;-0.428;2023-04-15T07:30:11;9.10;99.90
20744;DHT22;56303;52.160;-0.428;2023-04-15T07:32:38;9.10;99.90
20744;DHT22;56303;52.160;-0.428;2023-04-15T07:35:06;9.20;99.90
20744;DHT22;56303;52.160;-0.428;2023-04-15T07:37:33;9.20;99.90
20744;DHT22;56303;52.160;-0.428;2023-04-15T07:40:00;9.30;99.90
20744;DHT22;56303;52.160;-0.428;2023-04-15T07:42:27;9.30;99.90
20744;DHT22;56303;52.160;-0.428;2023-04-15T07:44:55;9.50;99.90
20744;DHT22;56303;52.160;-0.428;2023-04-15T07:47:22;9.50;99.90
20744;DHT22;56303;52.160;-0.428;2023-04-15T07:49:49;9.60;99.90
20744;DHT22;56303;52.160;-0.428;2023-04-15T07:52:17;9.70;99.90
20744;DHT22;56303;52.160;-0.428;2023-04-15T07:54:44;9.90;99.90
20744;DHT22;56303;52.160;-0.428;2023-04-15T07:57:11;9.80;99.90
20744;DHT22;56303;52.160;-0.428;2023-04-15T07:59:37;9.60;99.90
20744;DHT22;56303;52.160;-0.428;2023-04-15T08:02:04;9.80;99.90
20744;DHT22;56303;52.160;-0.428;2023-04-15T08:04:31;10.10;99.90
20744;DHT22;56303;52.160;-0.428;2023-04-15T08:06:59;10.10;99.90
20744;DHT22;56303;52.160;-0.428;2023-04-15T08:09:26;10.00;99.90
20744;DHT22;56303;52.160;-0.428;2023-04-15T08:11:53;9.80;99.90
20744;DHT22;56303;52.160;-0.428;2023-04-15T08:14:20;9.90;99.90
20744;DHT22;56303;52.160;-0.428;2023-04-15T08:16:47;10.20;99.90
20744;DHT22;56303;52.160;-0.428;2023-04-15T08:19:13;10.40;99.90
20744;DHT22;56303;52.160;-0.428;2023-04-15T08:21:40;10.50;99.90
20744;DHT22;56303;52.160;-0.428;2023-04-15T08:24:07;10.20;99.90
20744;DHT22;56303;52.160;-0.428;2023-04-15T08:26:34;10.00;99.90
20744;DHT22;56303;52.160;-0.428;2023-04-15T08:29:01;10.10;99.90
20744;DHT22;56303;52.160;-0.428;2023-04-15T08:31:28;10.70;99.90
20744;DHT22;56303;52.160;-0.428;2023-04-15T08:33:56;11.00;99.90
20744;DHT22;56303;52.160;-0.428;2023-04-15T08:36:24;10.60;99.90
20744;DHT22;56303;52.160;-0.428;2023-04-15T08:38:51;10.90;99.90
20744;DHT22;56303;52.160;-0.428;2023-04-15T08:41:21;11.00;99.90
20744;DHT22;56303;52.160;-0.428;2023-04-15T08:43:57;10.60;99.90
20744;DHT22;56303;52.160;-0.428;2023-04-15T08:46:24;10.70;99.90
20744;DHT22;56303;52.160;-0.428;2023-04-15T08:48:53;10.60;99.90
20744;DHT22;56303;52.160;-0.428;2023-04-15T08:51:22;10.70;99.90
20744;DHT22;56303;52.160;-0.428;2023-04-15T08:53:50;10.70;99.90
20744;DHT22;56303;52.160;-0.428;2023-04-15T08:56:18;10.70;99.90
20744;DHT22;56303;52.160;-0.428;2023-04-15T08:58:46;10.70;99.90
20744;DHT22;56303;52.160;-0.428;2023-04-15T09:01:13;10.60;99.90
20744;DHT22;56303;52.160;-0.428;2023-04-15T09:03:41;10.60;99.90
20744;DHT22;56303;52.160;-0.428;2023-04-15T09:06:08;10.90;99.90
20744;DHT22;56303;52.160;-0.428;2023-04-15T09:08:35;10.90;99.90
20744;DHT22;56303;52.160;-0.428;2023-04-15T09:11:02;11.40;99.90
20744;DHT22;56303;52.160;-0.428;2023-04-15T09:13:30;11.70;99.90
20744;DHT22;56303;52.160;-0.428;2023-04-15T09:16:01;11.70;99.90
20744;DHT22;56303;52.160;-0.428;2023-04-15T09:18:33;11.70;99.90
20744;DHT22;56303;52.160;-0.428;2023-04-15T09:21:05;11.40;99.90
20744;DHT22;56303;52.160;-0.428;2023-04-15T09:23:34;11.30;99.90
20744;DHT22;56303;52.160;-0.428;2023-04-15T09:26:02;11.50;99.90
20744;DHT22;56303;52.160;-0.428;2023-04-15T09:28:29;11.50;99.90
20744;DHT22;56303;52.160;-0.428;2023-04-15T09:33:24;11.50;99.90
20744;DHT22;56303;52.160;-0.428;2023-04-15T09:36:00;11.20;99.90
20744;DHT22;56303;52.160;-0.428;2023-04-15T09:38:27;11.40;99.90
20744;DHT22;56303;52.160;-0.428;2023-04-15T09:40:54;11.30;99.90
20744;DHT22;56303;52.160;-0.428;2023-04-15T09:43:22;11.30;99.90
20744;DHT22;56303;52.160;-0.428;2023-04-15T09:45:53;11.30;99.90
20744;DHT22;56303;52.160;-0.428;2023-04-15T09:48:22;11.30;99.90
20744;DHT22;56303;52.160;-0.428;2023-04-15T09:50:51;11.20;99.90
20744;DHT22;56303;52.160;-0.428;2023-04-15T09:53:20;11.50;99.90
20744;DHT22;56303;52.160;-0.428;2023-04-15T09:55:58;11.70;99.90
20744;DHT22;56303;52.160;-0.428;2023-04-15T09:58:31;11.70;99.90
20744;DHT22;56303;52.160;-0.428;2023-04-15T10:01:01;11.90;99.90
20744;DHT22;56303;52.160;-0.428;2023-04-15T10:03:33;11.40;99.90
20744;DHT22;56303;52.160;-0.428;2023-04-15T10:06:01;11.70;99.90
20744;DHT22;56303;52.160;-0.428;2023-04-15T10:08:32;12.20;99.90
20744;DHT22;56303;52.160;-0.428;2023-04-15T10:11:02;13.80;99.90
20744;DHT22;56303;52.160;-0.428;2023-04-15T10:13:31;12.50;99.90
20744;DHT22;56303;52.160;-0.428;2023-04-15T10:16:11;12.60;99.90
20744;DHT22;56303;52.160;-0.428;2023-04-15T10:18:45;12.30;99.90
20744;DHT22;56303;52.160;-0.428;2023-04-15T10:21:13;12.10;99.90
20744;DHT22;56303;52.160;-0.428;2023-04-15T10:23:47;12.60;99.90
20744;DHT22;56303;52.160;-0.428;2023-04-15T10:26:15;12.90;99.90
20744;DHT22;56303;52.160;-0.428;2023-04-15T10:28:43;12.90;99.90
20744;DHT22;56303;52.160;-0.428;2023-04-15T10:31:11;12.70;99.90
20744;DHT22;56303;52.160;-0.428;2023-04-15T10:33:41;12.70;99.90
20744;DHT22;56303;52.160;-0.428;2023-04-15T10:36:09;12.80;99.90
20744;DHT22;56303;52.160;-0.428;2023-04-15T10:38:39;13.00;99.90
20744;DHT22;56303;52.160;-0.428;2023-04-15T10:41:23;12.90;99.90
20744;DHT22;56303;52.160;-0.428;2023-04-15T10:43:52;13.00;99.90
20744;DHT22;56303;52.160;-0.428;2023-04-15T10:46:22;13.60;99.90
20744;DHT22;56303;52.160;-0.428;2023-04-15T10:48:52;13.80;99.90
20744;DHT22;56303;52.160;-0.428;2023-04-15T10:51:27;14.10;99.90
20744;DHT22;56303;52.160;-0.428;2023-04-15T10:54:00;14.50;99.90
20744;DHT22;56303;52.160;-0.428;2023-04-15T10:56:28;14.40;99.90
20744;DHT22;56303;52.160;-0.428;2023-04-15T10:58:58;14.60;99.90
20744;DHT22;56303;52.160;-0.428;2023-04-15T11:01:55;14.20;99.90
20744;DHT22;56303;52.160;-0.428;2023-04-15T11:04:54;14.20;99.90
20744;DHT22;56303;52.160;-0.428;2023-04-15T11:12:53;14.40;99.90
20744;DHT22;56303;52.160;-0.428;2023-04-15T11:15:32;14.20;99.90
20744;DHT22;56303;52.160;-0.428;2023-04-15T11:18:13;14.40;99.90
20744;DHT22;56303;52.160;-0.428;2023-04-15T11:23:14;15.10;99.90
20744;DHT22;56303;52.160;-0.428;2023-04-15T11:25:44;15.30;99.90
20744;DHT22;56303;52.160;-0.428;2023-04-15T11:28:12;15.40;99.90
20744;DHT22;56303;52.160;-0.428;2023-04-15T11:30:39;15.40;99.90
20744;DHT22;56303;52.160;-0.428;2023-04-15T11:33:09;15.10;99.90
20744;DHT22;56303;52.160;-0.428;2023-04-15T11:35:40;14.90;99.90
20744;DHT22;56303;52.160;-0.428;2023-04-15T11:38:09;15.50;99.90
20744;DHT22;56303;52.160;-0.428;2023-04-15T11:40:38;15.40;99.90
20744;DHT22;56303;52.160;-0.428;2023-04-15T11:45:47;15.10;99.90
20744;DHT22;56303;52.160;-0.428;2023-04-15T11:48:14;15.20;99.90
20744;DHT22;56303;52.160;-0.428;2023-04-15T11:50:43;15.40;99.90
20744;DHT22;56303;52.160;-0.428;2023-04-15T11:53:12;15.20;99.90
20744;DHT22;56303;52.160;-0.428;2023-04-15T11:55:49;15.50;99.90
20744;DHT22;56303;52.160;-0.428;2023-04-15T11:58:22;15.80;99.90
20744;DHT22;56303;52.160;-0.428;2023-04-15T12:00:54;16.50;99.90
20744;DHT22;56303;52.160;-0.428;2023-04-15T12:03:26;16.50;99.90
20744;DHT22;56303;52.160;-0.428;2023-04-15T12:09:02;16.00;99.90
20744;DHT22;56303;52.160;-0.428;2023-04-15T12:11:41;16.80;99.90
20744;DHT22;56303;52.160;-0.428;2023-04-15T12:14:34;17.50;99.90
20744;DHT22;56303;52.160;-0.428;2023-04-15T12:17:01;17.60;99.90
20744;DHT22;56303;52.160;-0.428;2023-04-15T12:19:38;17.00;99.90
20744;DHT22;56303;52.160;-0.428;2023-04-15T12:22:12;17.10;99.90
20744;DHT22;56303;52.160;-0.428;2023-04-15T12:24:41;17.10;99.90
